Westby, North Dakota
Current Conditions -  °F | °C
As of 6:17 PM on Thursday 27 Nov 2014 (Local Time) from KISN Reporting Station
Overcast Overcast  
Wind Chill:   Ceiling: 1400
Heat Index: 19°   Visibility: 10mi
Dew Point: 14°   Wind: 10mph
Humidity: 81%   Direction: 100°E
Pressure: 29.85"   Gusts: NA
Location:  48.5901°N, 103.922°W
Report Text: KISN 280017Z AUTO 10009KT 10SM OVC014 M07/M10 A2985 RMK AO2 T10721100
Loading
Personal Weather Stations






























Interactive Weather Map New forecast layout! Learn more

10-Day Weather Forecast

Advertisements
Track Severe Weather on mobile